sensor_id;sensor_type;location;lat;lon;timestamp;temperature;humidity
1602;DHT22;794;48.592;9.634;2022-09-12T00:01:39;9.90;1.00
1602;DHT22;794;48.592;9.634;2022-09-12T00:06:35;9.70;1.00
1602;DHT22;794;48.592;9.634;2022-09-12T00:09:05;9.80;1.00
1602;DHT22;794;48.592;9.634;2022-09-12T00:11:34;9.70;1.00
1602;DHT22;794;48.592;9.634;2022-09-12T00:14:02;9.70;1.00
1602;DHT22;794;48.592;9.634;2022-09-12T00:16:43;9.30;1.00
1602;DHT22;794;48.592;9.634;2022-09-12T00:21:39;9.60;1.00
1602;DHT22;794;48.592;9.634;2022-09-12T00:24:06;9.70;1.00
1602;DHT22;794;48.592;9.634;2022-09-12T00:31:34;9.50;1.00
1602;DHT22;794;48.592;9.634;2022-09-12T00:41:28;9.60;1.00
1602;DHT22;794;48.592;9.634;2022-09-12T00:43:57;9.60;1.00
1602;DHT22;794;48.592;9.634;2022-09-12T00:46:36;9.40;1.00
1602;DHT22;794;48.592;9.634;2022-09-12T00:49:10;9.50;1.00
1602;DHT22;794;48.592;9.634;2022-09-12T00:51:43;9.50;1.00
1602;DHT22;794;48.592;9.634;2022-09-12T00:54:14;9.50;1.00
1602;DHT22;794;48.592;9.634;2022-09-12T00:56:43;9.60;1.00
1602;DHT22;794;48.592;9.634;2022-09-12T00:59:12;9.60;1.00
1602;DHT22;794;48.592;9.634;2022-09-12T01:01:43;9.60;1.00
1602;DHT22;794;48.592;9.634;2022-09-12T01:04:17;9.40;1.00
1602;DHT22;794;48.592;9.634;2022-09-12T01:09:16;12.40;1.00
1602;DHT22;794;48.592;9.634;2022-09-12T01:11:47;9.40;1.00
1602;DHT22;794;48.592;9.634;2022-09-12T01:14:15;9.40;1.00
1602;DHT22;794;48.592;9.634;2022-09-12T01:16:45;9.20;1.00
1602;DHT22;794;48.592;9.634;2022-09-12T01:19:31;9.50;1.00
1602;DHT22;794;48.592;9.634;2022-09-12T01:22:19;9.30;1.00
1602;DHT22;794;48.592;9.634;2022-09-12T01:24:55;7.20;1.00
1602;DHT22;794;48.592;9.634;2022-09-12T01:28:06;9.50;1.00
1602;DHT22;794;48.592;9.634;2022-09-12T01:30:46;10.40;1.00
1602;DHT22;794;48.592;9.634;2022-09-12T01:33:34;9.20;1.00
1602;DHT22;794;48.592;9.634;2022-09-12T01:36:22;9.20;1.00
1602;DHT22;794;48.592;9.634;2022-09-12T01:38:58;9.40;1.00
1602;DHT22;794;48.592;9.634;2022-09-12T01:41:29;9.20;1.00
1602;DHT22;794;48.592;9.634;2022-09-12T01:44:02;9.10;1.00
1602;DHT22;794;48.592;9.634;2022-09-12T01:46:39;10.20;1.00
1602;DHT22;794;48.592;9.634;2022-09-12T01:49:12;9.40;1.00
1602;DHT22;794;48.592;9.634;2022-09-12T01:51:50;9.10;1.00
1602;DHT22;794;48.592;9.634;2022-09-12T01:54:21;9.20;1.00
1602;DHT22;794;48.592;9.634;2022-09-12T01:56:53;9.10;1.00
1602;DHT22;794;48.592;9.634;2022-09-12T01:59:24;8.90;1.00
1602;DHT22;794;48.592;9.634;2022-09-12T02:02:01;9.20;1.00
1602;DHT22;794;48.592;9.634;2022-09-12T02:04:35;9.10;1.00
1602;DHT22;794;48.592;9.634;2022-09-12T02:07:11;9.00;1.00
1602;DHT22;794;48.592;9.634;2022-09-12T02:09:44;9.40;1.00
1602;DHT22;794;48.592;9.634;2022-09-12T02:12:17;9.00;1.00
1602;DHT22;794;48.592;9.634;2022-09-12T02:14:50;9.40;1.00
1602;DHT22;794;48.592;9.634;2022-09-12T02:17:23;9.10;1.00
1602;DHT22;794;48.592;9.634;2022-09-12T02:19:53;9.30;1.00
1602;DHT22;794;48.592;9.634;2022-09-12T02:22:23;9.10;1.00
1602;DHT22;794;48.592;9.634;2022-09-12T02:24:56;9.10;1.00
1602;DHT22;794;48.592;9.634;2022-09-12T02:27:39;9.10;1.00
1602;DHT22;794;48.592;9.634;2022-09-12T02:30:08;9.30;1.00
1602;DHT22;794;48.592;9.634;2022-09-12T02:32:43;9.10;1.00
1602;DHT22;794;48.592;9.634;2022-09-12T02:35:21;9.10;1.00
1602;DHT22;794;48.592;9.634;2022-09-12T02:37:56;9.10;1.00
1602;DHT22;794;48.592;9.634;2022-09-12T02:47:52;9.10;1.00
1602;DHT22;794;48.592;9.634;2022-09-12T02:55:25;9.10;1.00
1602;DHT22;794;48.592;9.634;2022-09-12T03:00:39;9.20;1.00
1602;DHT22;794;48.592;9.634;2022-09-12T03:03:20;8.90;1.00
1602;DHT22;794;48.592;9.634;2022-09-12T03:05:54;9.00;1.00
1602;DHT22;794;48.592;9.634;2022-09-12T03:08:45;9.00;1.00
1602;DHT22;794;48.592;9.634;2022-09-12T03:11:50;9.00;1.00
1602;DHT22;794;48.592;9.634;2022-09-12T03:14:40;9.00;1.00
1602;DHT22;794;48.592;9.634;2022-09-12T03:17:18;9.10;1.00
1602;DHT22;794;48.592;9.634;2022-09-12T03:19:55;9.10;1.00
1602;DHT22;794;48.592;9.634;2022-09-12T03:22:28;9.00;1.00
1602;DHT22;794;48.592;9.634;2022-09-12T03:25:03;9.00;1.00
1602;DHT22;794;48.592;9.634;2022-09-12T03:27:35;8.80;1.00
1602;DHT22;794;48.592;9.634;2022-09-12T03:30:04;9.10;1.00
1602;DHT22;794;48.592;9.634;2022-09-12T03:32:49;9.10;1.00
1602;DHT22;794;48.592;9.634;2022-09-12T03:35:20;9.10;1.00
1602;DHT22;794;48.592;9.634;2022-09-12T03:37:51;8.90;1.00
1602;DHT22;794;48.592;9.634;2022-09-12T03:52:41;9.00;1.00
1602;DHT22;794;48.592;9.634;2022-09-12T04:00:05;8.90;1.00
1602;DHT22;794;48.592;9.634;2022-09-12T04:02:36;8.80;1.00
1602;DHT22;794;48.592;9.634;2022-09-12T04:05:03;8.90;1.00
1602;DHT22;794;48.592;9.634;2022-09-12T04:07:36;8.90;1.00
1602;DHT22;794;48.592;9.634;2022-09-12T04:10:07;8.90;1.00
1602;DHT22;794;48.592;9.634;2022-09-12T04:15:06;8.90;1.00
1602;DHT22;794;48.592;9.634;2022-09-12T04:25:07;9.00;1.00
1602;DHT22;794;48.592;9.634;2022-09-12T04:32:32;8.70;1.00
1602;DHT22;794;48.592;9.634;2022-09-12T04:42:27;8.60;1.00
1602;DHT22;794;48.592;9.634;2022-09-12T04:54:48;8.70;1.00
1602;DHT22;794;48.592;9.634;2022-09-12T05:09:12;8.90;1.00
1602;DHT22;794;48.592;9.634;2022-09-12T05:11:42;8.80;1.00
1602;DHT22;794;48.592;9.634;2022-09-12T05:31:26;9.30;1.00
1602;DHT22;794;48.592;9.634;2022-09-12T05:36:24;9.30;1.00
1602;DHT22;794;48.592;9.634;2022-09-12T05:38:51;9.10;1.00
1602;DHT22;794;48.592;9.634;2022-09-12T05:41:24;9.10;1.00
1602;DHT22;794;48.592;9.634;2022-09-12T05:43:55;9.30;1.00
1602;DHT22;794;48.592;9.634;2022-09-12T05:46:24;9.40;1.00
1602;DHT22;794;48.592;9.634;2022-09-12T05:48:52;9.30;1.00
1602;DHT22;794;48.592;9.634;2022-09-12T05:51:25;9.80;1.00
1602;DHT22;794;48.592;9.634;2022-09-12T05:54:05;9.60;1.00
1602;DHT22;794;48.592;9.634;2022-09-12T05:56:37;9.70;1.00
1602;DHT22;794;48.592;9.634;2022-09-12T05:59:06;9.80;1.00
1602;DHT22;794;48.592;9.634;2022-09-12T06:01:40;9.90;1.00
1602;DHT22;794;48.592;9.634;2022-09-12T06:06:44;9.90;1.00
1602;DHT22;794;48.592;9.634;2022-09-12T06:09:15;10.10;1.00
1602;DHT22;794;48.592;9.634;2022-09-12T06:14:15;10.40;1.00
1602;DHT22;794;48.592;9.634;2022-09-12T06:19:13;10.20;1.00
1602;DHT22;794;48.592;9.634;2022-09-12T06:29:10;10.70;1.00
1602;DHT22;794;48.592;9.634;2022-09-12T06:31:40;10.80;1.00
1602;DHT22;794;48.592;9.634;2022-09-12T06:34:11;10.90;1.00
1602;DHT22;794;48.592;9.634;2022-09-12T06:36:43;10.80;1.00
1602;DHT22;794;48.592;9.634;2022-09-12T06:39:12;11.10;1.00
1602;DHT22;794;48.592;9.634;2022-09-12T06:41:39;12.20;1.00
1602;DHT22;794;48.592;9.634;2022-09-12T06:46:37;11.40;1.00
1602;DHT22;794;48.592;9.634;2022-09-12T06:58:56;12.00;1.00
1602;DHT22;794;48.592;9.634;2022-09-12T07:01:26;12.10;1.00
1602;DHT22;794;48.592;9.634;2022-09-12T07:04:00;12.40;1.00
1602;DHT22;794;48.592;9.634;2022-09-12T07:06:30;12.50;1.00
1602;DHT22;794;48.592;9.634;2022-09-12T07:09:03;12.80;1.00
1602;DHT22;794;48.592;9.634;2022-09-12T07:11:31;13.00;1.00
1602;DHT22;794;48.592;9.634;2022-09-12T07:13:59;13.40;1.00
1602;DHT22;794;48.592;9.634;2022-09-12T07:19:12;19.00;22.70
1602;DHT22;794;48.592;9.634;2022-09-12T07:21:42;19.30;19.10
1602;DHT22;794;48.592;9.634;2022-09-12T07:26:37;25.20;1.00
1602;DHT22;794;48.592;9.634;2022-09-12T07:34:06;32.70;1.00
1602;DHT22;794;48.592;9.634;2022-09-12T07:36:34;34.00;1.00
1602;DHT22;794;48.592;9.634;2022-09-12T07:41:30;35.00;1.00
1602;DHT22;794;48.592;9.634;2022-09-12T07:44:10;32.20;1.00
1602;DHT22;794;48.592;9.634;2022-09-12T07:51:41;27.60;1.00
1602;DHT22;794;48.592;9.634;2022-09-12T08:06:27;29.20;1.00
1602;DHT22;794;48.592;9.634;2022-09-12T08:08:58;30.20;1.00
1602;DHT22;794;48.592;9.634;2022-09-12T08:11:29;31.90;1.00
1602;DHT22;794;48.592;9.634;2022-09-12T08:16:25;33.50;1.00
1602;DHT22;794;48.592;9.634;2022-09-12T08:21:25;31.60;1.00
1602;DHT22;794;48.592;9.634;2022-09-12T08:23:58;31.30;1.00
1602;DHT22;794;48.592;9.634;2022-09-12T08:26:28;29.30;1.00
1602;DHT22;794;48.592;9.634;2022-09-12T08:39:02;29.50;1.00
1602;DHT22;794;48.592;9.634;2022-09-12T08:41:35;29.90;1.00
1602;DHT22;794;48.592;9.634;2022-09-12T08:44:33;29.40;1.00
1602;DHT22;794;48.592;9.634;2022-09-12T08:47:27;28.90;1.00
1602;DHT22;794;48.592;9.634;2022-09-12T08:50:05;28.80;1.00
1602;DHT22;794;48.592;9.634;2022-09-12T08:52:44;28.70;1.00
1602;DHT22;794;48.592;9.634;2022-09-12T08:55:28;27.30;1.00
1602;DHT22;794;48.592;9.634;2022-09-12T09:00:34;26.60;1.00
1602;DHT22;794;48.592;9.634;2022-09-12T09:06:04;26.00;1.00
1602;DHT22;794;48.592;9.634;2022-09-12T09:08:43;26.40;1.00
1602;DHT22;794;48.592;9.634;2022-09-12T09:11:31;24.90;1.00
1602;DHT22;794;48.592;9.634;2022-09-12T09:14:09;25.40;1.00
1602;DHT22;794;48.592;9.634;2022-09-12T09:16:59;25.40;1.00
1602;DHT22;794;48.592;9.634;2022-09-12T09:19:29;26.10;1.00
1602;DHT22;794;48.592;9.634;2022-09-12T09:21:58;26.30;1.00
1602;DHT22;794;48.592;9.634;2022-09-12T09:24:42;26.90;1.00
1602;DHT22;794;48.592;9.634;2022-09-12T09:27:19;25.80;1.00
1602;DHT22;794;48.592;9.634;2022-09-12T09:29:52;25.70;1.00
1602;DHT22;794;48.592;9.634;2022-09-12T09:32:28;25.40;1.00
1602;DHT22;794;48.592;9.634;2022-09-12T09:37:30;25.20;1.00
1602;DHT22;794;48.592;9.634;2022-09-12T09:40:14;25.10;1.00
1602;DHT22;794;48.592;9.634;2022-09-12T09:42:51;24.80;1.00
1602;DHT22;794;48.592;9.634;2022-09-12T09:45:23;24.60;1.00
1602;DHT22;794;48.592;9.634;2022-09-12T09:47:56;24.70;1.00
1602;DHT22;794;48.592;9.634;2022-09-12T09:50:26;25.50;1.00
1602;DHT22;794;48.592;9.634;2022-09-12T09:52:58;25.20;1.00
1602;DHT22;794;48.592;9.634;2022-09-12T09:55:31;24.70;1.00
1602;DHT22;794;48.592;9.634;2022-09-12T09:58:02;23.80;1.00
1602;DHT22;794;48.592;9.634;2022-09-12T10:00:30;23.80;1.00
1602;DHT22;794;48.592;9.634;2022-09-12T10:03:04;23.70;1.00
1602;DHT22;794;48.592;9.634;2022-09-12T10:05:33;23.30;1.00
1602;DHT22;794;48.592;9.634;2022-09-12T10:08:09;23.40;1.00
1602;DHT22;794;48.592;9.634;2022-09-12T10:15:56;22.90;1.00
1602;DHT22;794;48.592;9.634;2022-09-12T10:18:38;22.40;1.00
1602;DHT22;794;48.592;9.634;2022-09-12T10:21:26;23.00;1.00
1602;DHT22;794;48.592;9.634;2022-09-12T10:24:17;22.50;1.00
1602;DHT22;794;48.592;9.634;2022-09-12T10:26:49;22.80;1.00
1602;DHT22;794;48.592;9.634;2022-09-12T10:29:22;22.60;1.00
1602;DHT22;794;48.592;9.634;2022-09-12T10:32:00;22.90;1.00
1602;DHT22;794;48.592;9.634;2022-09-12T10:34:33;20.30;1.00
1602;DHT22;794;48.592;9.634;2022-09-12T10:37:06;22.10;1.00
1602;DHT22;794;48.592;9.634;2022-09-12T10:44:30;22.70;1.00
1602;DHT22;794;48.592;9.634;2022-09-12T10:46:59;22.50;1.00
1602;DHT22;794;48.592;9.634;2022-09-12T10:52:19;22.20;1.00
1602;DHT22;794;48.592;9.634;2022-09-12T10:57:42;21.50;1.00
1602;DHT22;794;48.592;9.634;2022-09-12T11:00:16;21.50;1.00
1602;DHT22;794;48.592;9.634;2022-09-12T11:03:01;21.60;1.00
1602;DHT22;794;48.592;9.634;2022-09-12T11:05:47;21.90;1.00
1602;DHT22;794;48.592;9.634;2022-09-12T11:08:34;22.20;1.00
1602;DHT22;794;48.592;9.634;2022-09-12T11:11:11;21.70;1.00
1602;DHT22;794;48.592;9.634;2022-09-12T11:13:56;21.70;1.00
1602;DHT22;794;48.592;9.634;2022-09-12T11:16:33;21.90;1.00
1602;DHT22;794;48.592;9.634;2022-09-12T11:19:26;21.50;1.00
1602;DHT22;794;48.592;9.634;2022-09-12T11:22:18;21.60;1.00
1602;DHT22;794;48.592;9.634;2022-09-12T11:25:04;21.50;1.00
1602;DHT22;794;48.592;9.634;2022-09-12T11:27:53;21.70;1.00
1602;DHT22;794;48.592;9.634;2022-09-12T11:33:05;21.30;1.00
1602;DHT22;794;48.592;9.634;2022-09-12T11:35:34;21.40;1.00
1602;DHT22;794;48.592;9.634;2022-09-12T11:38:35;21.40;1.00
1602;DHT22;794;48.592;9.634;2022-09-12T11:41:12;21.50;1.00
1602;DHT22;794;48.592;9.634;2022-09-12T11:43:47;21.40;1.00
1602;DHT22;794;48.592;9.634;2022-09-12T11:46:20;21.40;1.00
1602;DHT22;794;48.592;9.634;2022-09-12T11:48:54;21.50;1.00
1602;DHT22;794;48.592;9.634;2022-09-12T11:51:32;21.70;1.00
1602;DHT22;794;48.592;9.634;2022-09-12T11:54:10;21.70;1.00
1602;DHT22;794;48.592;9.634;2022-09-12T11:56:44;21.50;1.00
1602;DHT22;794;48.592;9.634;2022-09-12T11:59:17;21.80;1.00
1602;DHT22;794;48.592;9.634;2022-09-12T12:01:46;22.00;1.00
1602;DHT22;794;48.592;9.634;2022-09-12T12:04:24;22.50;1.00
1602;DHT22;794;48.592;9.634;2022-09-12T12:07:00;22.90;1.00
1602;DHT22;794;48.592;9.634;2022-09-12T12:12:01;23.10;1.00
1602;DHT22;794;48.592;9.634;2022-09-12T12:14:36;25.90;1.00
1602;DHT22;794;48.592;9.634;2022-09-12T12:17:12;23.20;1.00
1602;DHT22;794;48.592;9.634;2022-09-12T12:19:46;23.30;1.00
1602;DHT22;794;48.592;9.634;2022-09-12T12:22:18;23.40;1.00
1602;DHT22;794;48.592;9.634;2022-09-12T12:25:05;23.50;1.00
1602;DHT22;794;48.592;9.634;2022-09-12T12:27:57;23.50;1.00
1602;DHT22;794;48.592;9.634;2022-09-12T12:30:59;26.40;1.00
1602;DHT22;794;48.592;9.634;2022-09-12T12:34:00;23.30;1.00
1602;DHT22;794;48.592;9.634;2022-09-12T12:36:39;23.30;1.00
1602;DHT22;794;48.592;9.634;2022-09-12T12:44:48;23.10;1.00
1602;DHT22;794;48.592;9.634;2022-09-12T12:47:17;22.80;1.00
1602;DHT22;794;48.592;9.634;2022-09-12T12:49:50;22.80;1.00
1602;DHT22;794;48.592;9.634;2022-09-12T12:52:24;22.70;1.00
1602;DHT22;794;48.592;9.634;2022-09-12T12:54:56;22.60;1.00
1602;DHT22;794;48.592;9.634;2022-09-12T13:00:30;22.50;1.00
1602;DHT22;794;48.592;9.634;2022-09-12T13:03:00;22.50;1.00
1602;DHT22;794;48.592;9.634;2022-09-12T13:05:39;22.00;1.00
1602;DHT22;794;48.592;9.634;2022-09-12T13:08:10;22.00;1.00
1602;DHT22;794;48.592;9.634;2022-09-12T13:13:06;22.00;1.00
1602;DHT22;794;48.592;9.634;2022-09-12T13:15:49;22.00;1.00
1602;DHT22;794;48.592;9.634;2022-09-12T13:18:21;22.00;1.00
1602;DHT22;794;48.592;9.634;2022-09-12T13:20:52;22.10;1.00
1602;DHT22;794;48.592;9.634;2022-09-12T13:23:26;22.40;1.00
1602;DHT22;794;48.592;9.634;2022-09-12T13:25:59;22.40;1.00
1602;DHT22;794;48.592;9.634;2022-09-12T13:28:30;22.40;1.00
1602;DHT22;794;48.592;9.634;2022-09-12T13:30:59;22.30;1.00
1602;DHT22;794;48.592;9.634;2022-09-12T13:33:39;22.00;1.00
1602;DHT22;794;48.592;9.634;2022-09-12T13:36:30;21.70;1.00
1602;DHT22;794;48.592;9.634;2022-09-12T13:44:54;21.80;1.00
1602;DHT22;794;48.592;9.634;2022-09-12T13:47:25;21.70;1.00
1602;DHT22;794;48.592;9.634;2022-09-12T13:49:59;21.90;1.00
1602;DHT22;794;48.592;9.634;2022-09-12T13:52:30;23.30;1.00
1602;DHT22;794;48.592;9.634;2022-09-12T13:55:06;21.80;1.00
1602;DHT22;794;48.592;9.634;2022-09-12T13:57:54;21.60;1.00
1602;DHT22;794;48.592;9.634;2022-09-12T14:05:40;21.50;1.00
1602;DHT22;794;48.592;9.634;2022-09-12T14:08:11;21.60;1.00
1602;DHT22;794;48.592;9.634;2022-09-12T14:10:43;21.50;1.00
1602;DHT22;794;48.592;9.634;2022-09-12T14:13:17;21.80;1.00
1602;DHT22;794;48.592;9.634;2022-09-12T14:15:48;21.80;1.00
1602;DHT22;794;48.592;9.634;2022-09-12T14:18:24;21.80;1.00
1602;DHT22;794;48.592;9.634;2022-09-12T14:20:53;21.90;1.00
1602;DHT22;794;48.592;9.634;2022-09-12T14:23:26;23.00;1.00
1602;DHT22;794;48.592;9.634;2022-09-12T14:25:56;22.80;1.00
1602;DHT22;794;48.592;9.634;2022-09-12T14:31:00;22.20;1.00
1602;DHT22;794;48.592;9.634;2022-09-12T14:33:27;22.20;1.00
1602;DHT22;794;48.592;9.634;2022-09-12T14:36:08;22.20;1.00
1602;DHT22;794;48.592;9.634;2022-09-12T14:38:39;22.10;1.00
1602;DHT22;794;48.592;9.634;2022-09-12T14:41:09;22.10;1.00
1602;DHT22;794;48.592;9.634;2022-09-12T14:43:43;21.90;1.00
1602;DHT22;794;48.592;9.634;2022-09-12T14:46:16;22.10;1.00
1602;DHT22;794;48.592;9.634;2022-09-12T14:48:47;22.20;1.00
1602;DHT22;794;48.592;9.634;2022-09-12T14:51:20;22.20;1.00
1602;DHT22;794;48.592;9.634;2022-09-12T14:56:21;22.20;1.00
1602;DHT22;794;48.592;9.634;2022-09-12T14:59:24;22.00;1.00
1602;DHT22;794;48.592;9.634;2022-09-12T15:02:23;22.20;1.00
1602;DHT22;794;48.592;9.634;2022-09-12T15:04:52;21.90;1.00
1602;DHT22;794;48.592;9.634;2022-09-12T15:07:30;22.00;1.00
1602;DHT22;794;48.592;9.634;2022-09-12T15:09:59;22.10;1.00
1602;DHT22;794;48.592;9.634;2022-09-12T15:12:28;22.10;1.00
1602;DHT22;794;48.592;9.634;2022-09-12T15:14:58;22.20;1.00
1602;DHT22;794;48.592;9.634;2022-09-12T15:27:23;22.10;1.00
1602;DHT22;794;48.592;9.634;2022-09-12T15:29:58;22.00;1.00
1602;DHT22;794;48.592;9.634;2022-09-12T15:32:28;22.00;1.00
1602;DHT22;794;48.592;9.634;2022-09-12T15:37:23;21.90;1.00
1602;DHT22;794;48.592;9.634;2022-09-12T15:40:00;21.80;1.00
1602;DHT22;794;48.592;9.634;2022-09-12T15:42:28;21.80;1.00
1602;DHT22;794;48.592;9.634;2022-09-12T15:45:00;21.40;1.00
1602;DHT22;794;48.592;9.634;2022-09-12T16:02:21;21.50;1.00
1602;DHT22;794;48.592;9.634;2022-09-12T16:12:16;21.00;1.00
1602;DHT22;794;48.592;9.634;2022-09-12T16:17:13;20.60;1.00
1602;DHT22;794;48.592;9.634;2022-09-12T16:19:42;20.60;1.00
1602;DHT22;794;48.592;9.634;2022-09-12T16:32:02;20.00;1.00
1602;DHT22;794;48.592;9.634;2022-09-12T16:34:30;19.90;1.00
1602;DHT22;794;48.592;9.634;2022-09-12T16:36:58;19.60;1.00
1602;DHT22;794;48.592;9.634;2022-09-12T16:39:30;19.50;1.00
1602;DHT22;794;48.592;9.634;2022-09-12T16:44:31;19.30;1.00
1602;DHT22;794;48.592;9.634;2022-09-12T16:51:52;18.90;1.00
1602;DHT22;794;48.592;9.634;2022-09-12T16:54:20;18.50;1.00
1602;DHT22;794;48.592;9.634;2022-09-12T17:04:22;18.00;1.00
1602;DHT22;794;48.592;9.634;2022-09-12T17:11:51;17.70;1.00
1602;DHT22;794;48.592;9.634;2022-09-12T17:14:17;20.00;1.00
1602;DHT22;794;48.592;9.634;2022-09-12T17:16:45;17.20;1.00
1602;DHT22;794;48.592;9.634;2022-09-12T17:19:14;17.10;1.00
1602;DHT22;794;48.592;9.634;2022-09-12T17:21:45;16.90;1.00
1602;DHT22;794;48.592;9.634;2022-09-12T17:26:43;16.80;1.00
1602;DHT22;794;48.592;9.634;2022-09-12T17:34:09;16.30;1.00
1602;DHT22;794;48.592;9.634;2022-09-12T17:44:08;15.90;1.00
1602;DHT22;794;48.592;9.634;2022-09-12T17:49:10;15.80;1.00
1602;DHT22;794;48.592;9.634;2022-09-12T17:51:45;15.60;1.00
1602;DHT22;794;48.592;9.634;2022-09-12T17:54:14;15.50;1.00
1602;DHT22;794;48.592;9.634;2022-09-12T17:56:46;15.50;1.00
1602;DHT22;794;48.592;9.634;2022-09-12T17:59:18;15.30;1.00
1602;DHT22;794;48.592;9.634;2022-09-12T18:01:46;15.30;1.00
1602;DHT22;794;48.592;9.634;2022-09-12T18:06:58;15.20;1.00
1602;DHT22;794;48.592;9.634;2022-09-12T18:14:24;14.70;1.00
1602;DHT22;794;48.592;9.634;2022-09-12T18:21:52;14.60;1.00
1602;DHT22;794;48.592;9.634;2022-09-12T18:29:14;14.40;1.00
1602;DHT22;794;48.592;9.634;2022-09-12T18:31:43;14.30;1.00
1602;DHT22;794;48.592;9.634;2022-09-12T18:39:14;14.10;1.00
1602;DHT22;794;48.592;9.634;2022-09-12T18:44:10;14.10;1.00
1602;DHT22;794;48.592;9.634;2022-09-12T18:49:06;13.90;1.00
1602;DHT22;794;48.592;9.634;2022-09-12T18:51:35;13.80;1.00
1602;DHT22;794;48.592;9.634;2022-09-12T18:54:13;13.80;1.00
1602;DHT22;794;48.592;9.634;2022-09-12T18:59:10;13.80;1.00
1602;DHT22;794;48.592;9.634;2022-09-12T19:01:41;13.60;1.00
1602;DHT22;794;48.592;9.634;2022-09-12T19:04:17;13.60;1.00
1602;DHT22;794;48.592;9.634;2022-09-12T19:06:45;13.60;1.00
1602;DHT22;794;48.592;9.634;2022-09-12T19:09:15;13.60;1.00
1602;DHT22;794;48.592;9.634;2022-09-12T19:11:46;13.40;1.00
1602;DHT22;794;48.592;9.634;2022-09-12T19:14:14;13.40;1.00
1602;DHT22;794;48.592;9.634;2022-09-12T19:21:40;13.30;1.00
1602;DHT22;794;48.592;9.634;2022-09-12T19:29:04;13.20;1.00
1602;DHT22;794;48.592;9.634;2022-09-12T19:33:59;13.10;1.00
1602;DHT22;794;48.592;9.634;2022-09-12T19:38:55;13.00;1.00
1602;DHT22;794;48.592;9.634;2022-09-12T19:46:24;12.80;1.00
1602;DHT22;794;48.592;9.634;2022-09-12T19:51:19;12.70;1.00
1602;DHT22;794;48.592;9.634;2022-09-12T19:56:16;12.60;1.00
1602;DHT22;794;48.592;9.634;2022-09-12T19:58:44;12.60;1.00
1602;DHT22;794;48.592;9.634;2022-09-12T20:01:15;12.50;1.00
1602;DHT22;794;48.592;9.634;2022-09-12T20:03:45;12.50;1.00
1602;DHT22;794;48.592;9.634;2022-09-12T20:06:17;12.40;1.00
1602;DHT22;794;48.592;9.634;2022-09-12T20:08:44;12.10;1.00
1602;DHT22;794;48.592;9.634;2022-09-12T20:11:13;12.30;1.00
1602;DHT22;794;48.592;9.634;2022-09-12T20:13:46;12.40;1.00
1602;DHT22;794;48.592;9.634;2022-09-12T20:16:17;12.50;1.00
1602;DHT22;794;48.592;9.634;2022-09-12T20:21:17;12.40;1.00
1602;DHT22;794;48.592;9.634;2022-09-12T20:23:45;12.10;1.00
1602;DHT22;794;48.592;9.634;2022-09-12T20:26:14;12.20;1.00
1602;DHT22;794;48.592;9.634;2022-09-12T20:31:24;12.20;1.00
1602;DHT22;794;48.592;9.634;2022-09-12T20:33:53;12.00;1.00
1602;DHT22;794;48.592;9.634;2022-09-12T20:36:21;12.10;1.00
1602;DHT22;794;48.592;9.634;2022-09-12T20:38:50;12.00;1.00
1602;DHT22;794;48.592;9.634;2022-09-12T20:41:24;12.10;1.00
1602;DHT22;794;48.592;9.634;2022-09-12T20:43:55;12.20;1.00
1602;DHT22;794;48.592;9.634;2022-09-12T20:46:26;11.90;1.00
1602;DHT22;794;48.592;9.634;2022-09-12T20:51:21;12.00;1.00
1602;DHT22;794;48.592;9.634;2022-09-12T20:53:52;12.20;1.00
1602;DHT22;794;48.592;9.634;2022-09-12T21:01:26;12.00;1.00
1602;DHT22;794;48.592;9.634;2022-09-12T21:06:24;11.70;1.00
1602;DHT22;794;48.592;9.634;2022-09-12T21:11:20;11.80;1.00
1602;DHT22;794;48.592;9.634;2022-09-12T21:16:16;11.70;1.00
1602;DHT22;794;48.592;9.634;2022-09-12T21:18:45;11.80;1.00
1602;DHT22;794;48.592;9.634;2022-09-12T21:36:03;11.60;1.00
1602;DHT22;794;48.592;9.634;2022-09-12T21:38:37;11.60;1.00
1602;DHT22;794;48.592;9.634;2022-09-12T21:41:09;11.50;1.00
1602;DHT22;794;48.592;9.634;2022-09-12T21:43:52;11.50;1.00
1602;DHT22;794;48.592;9.634;2022-09-12T22:01:13;11.50;1.00
1602;DHT22;794;48.592;9.634;2022-09-12T22:06:12;11.30;1.00
1602;DHT22;794;48.592;9.634;2022-09-12T22:11:11;11.20;1.00
1602;DHT22;794;48.592;9.634;2022-09-12T22:13:40;11.40;1.00
1602;DHT22;794;48.592;9.634;2022-09-12T22:21:05;11.20;1.00
1602;DHT22;794;48.592;9.634;2022-09-12T22:23:37;11.10;1.00
1602;DHT22;794;48.592;9.634;2022-09-12T22:26:22;11.10;1.00
1602;DHT22;794;48.592;9.634;2022-09-12T22:28:52;11.00;1.00
1602;DHT22;794;48.592;9.634;2022-09-12T22:31:20;11.10;1.00
1602;DHT22;794;48.592;9.634;2022-09-12T22:43:42;11.20;1.00
1602;DHT22;794;48.592;9.634;2022-09-12T22:46:11;11.00;1.00
1602;DHT22;794;48.592;9.634;2022-09-12T22:51:17;10.90;1.00
1602;DHT22;794;48.592;9.634;2022-09-12T22:53:47;10.90;1.00
1602;DHT22;794;48.592;9.634;2022-09-12T22:58:46;11.10;1.00
1602;DHT22;794;48.592;9.634;2022-09-12T23:08:38;11.00;1.00
1602;DHT22;794;48.592;9.634;2022-09-12T23:11:07;11.00;1.00
1602;DHT22;794;48.592;9.634;2022-09-12T23:16:05;11.00;1.00
1602;DHT22;794;48.592;9.634;2022-09-12T23:18:34;10.90;1.00
1602;DHT22;794;48.592;9.634;2022-09-12T23:21:03;10.90;1.00
1602;DHT22;794;48.592;9.634;2022-09-12T23:26:08;10.50;1.00
1602;DHT22;794;48.592;9.634;2022-09-12T23:28:38;10.80;1.00
1602;DHT22;794;48.592;9.634;2022-09-12T23:31:07;10.80;1.00
1602;DHT22;794;48.592;9.634;2022-09-12T23:33:36;10.60;1.00
1602;DHT22;794;48.592;9.634;2022-09-12T23:36:10;10.80;1.00
1602;DHT22;794;48.592;9.634;2022-09-12T23:38:42;10.80;1.00
1602;DHT22;794;48.592;9.634;2022-09-12T23:41:11;10.60;1.00
1602;DHT22;794;48.592;9.634;2022-09-12T23:46:12;10.60;1.00
